PHOG METAR and TAF | Updated Today

PHOG METAR

Kahului Airport

Observation time: 36 min. ago

PHOG 061754Z 05011KT 10SM FEW035 BKN060 23/20 A3017 RMK AO2 SLP221 T02330200 10233 20189 52014

Need help? Read our tutorial on how to read METARs or read the parsed version below.

Kahului Airport (PHOG) METAR

  • Weather conditions on Mon, 06 Feb 2023 17:54:00 +0000 (36 min. ago):
  • Present conditions: Dry
  • Clouds: A few at 1067 meters; broken sky at 1829 meters
  • Visibility: 16093 meters
  • Wind: 50 degrees at 11 knots
  • Temperature: 23 celsius
  • Dew point: 20 celsius
  • Pressure: 30.17 inHg
  • Remarks: AO2 SLP221 T02330200 10233 20189 52014


Useful to know...

PHOG TAF

Kahului Airport

PHOG 061731Z 0618/0718 04011KT P6SM FEW025 SCT050 FM062000 07019G28KT P6SM FEW030 SCT060 FM070600 06011KT P6SM SCT035 SCT060
Observation time: 59 min. ago
Need help? Read our tutorial on how to read TAFs or read the parsed version below.

Parsed version of TAF for Kahului Airport (PHOG)

  • From 06 February at 18:00 UTC, to day 07 of the month at 18:00 UTC
  • Clouds: A few at 762 meters; scattered at 1524 meters
  • Wind: 40 degrees at 11
  • From day 6 of the month at 20:00 UTC
  • Clouds: A few at 914 meters; scattered at 1829 meters
  • Wind: 70 degrees at 19
  • From day 7 of the month at 06:00 UTC
  • Clouds: Scattered at 1067 meters; scattered at 1829 meters
  • Wind: 60 degrees at 11